Time;durP1;ratioP1;P1;durP2;ratioP2;P2;SDS_P1;SDS_P2;PMS_P1;PMS_P2;Temp;Humidity;BMP_temperature;BMP_pressure;BME280_temperature;BME280_humidity;BME280_pressure;Samples;Min_cycle;Max_cycle;Signal;HPM_P1;HPM_P2
2023/10/04 00:01:37;;;;;;;9.65;2.08;;;;;;;18.52;59.45;102402.06;5073418;28;20531;-66
2023/10/04 00:04:06;;;;;;;10.75;2.08;;;;;;;18.53;61.82;102403.69;5073339;28;20491;-72
2023/10/04 00:06:34;;;;;;;8.00;2.20;;;;;;;17.98;62.96;102410.91;5073304;28;20045;-71
2023/10/04 00:09:02;;;;;;;18.40;2.70;;;;;;;18.18;63.27;102401.97;5073298;28;20052;-66
2023/10/04 00:11:33;;;;;;;8.32;2.00;;;;;;;18.57;62.16;102389.91;5055785;28;20499;-71
2023/10/04 00:14:01;;;;;;;17.42;2.67;;;;;;;17.98;62.90;102400.59;5073299;28;20059;-72
2023/10/04 00:16:28;;;;;;;14.60;2.22;;;;;;;17.39;64.21;102394.69;5073542;28;20051;-71
2023/10/04 00:18:56;;;;;;;13.23;2.30;;;;;;;18.02;64.03;102389.59;5073518;28;20052;-71
2023/10/04 00:21:25;;;;;;;10.88;2.63;;;;;;;18.12;62.81;102391.25;5073841;28;20056;-72
2023/10/04 00:23:52;;;;;;;9.23;2.67;;;;;;;18.66;61.87;102387.94;5073543;28;20053;-72
2023/10/04 00:26:20;;;;;;;12.20;2.13;;;;;;;18.68;61.00;102388.44;5080330;28;20515;-73
2023/10/04 00:28:49;;;;;;;10.95;2.53;;;;;;;18.75;60.12;102375.66;5086593;28;20063;-71
2023/10/04 00:31:16;;;;;;;12.35;2.60;;;;;;;18.92;60.24;102378.44;5073846;28;20063;-71
2023/10/04 00:33:44;;;;;;;13.05;2.53;;;;;;;19.06;59.60;102370.69;5073615;28;20056;-70
2023/10/04 00:36:13;;;;;;;12.25;2.50;;;;;;;18.84;58.86;102376.47;5073746;28;20059;-72
2023/10/04 00:38:40;;;;;;;15.25;2.42;;;;;;;18.59;60.76;102382.03;5018320;28;20064;-72
2023/10/04 00:41:11;;;;;;;13.35;2.75;;;;;;;18.39;61.43;102379.84;5062062;28;20207;-71
2023/10/04 00:43:49;;;;;;;13.82;2.55;;;;;;;18.45;60.59;102378.56;5037742;28;20053;-72
2023/10/04 00:46:19;;;;;;;13.27;2.55;;;;;;;18.65;60.96;102378.78;5039131;28;20045;-71
2023/10/04 00:48:47;;;;;;;15.38;2.55;;;;;;;18.56;60.65;102380.75;5022622;28;20057;-72
2023/10/04 00:51:15;;;;;;;14.10;2.40;;;;;;;18.67;60.50;102379.25;5023184;28;20056;-70
2023/10/04 00:53:44;;;;;;;12.73;2.78;;;;;;;18.26;62.10;102384.41;5072531;28;20057;-71
2023/10/04 00:56:15;;;;;;;15.85;2.75;;;;;;;18.58;61.12;102381.25;5051957;28;20061;-72
2023/10/04 00:58:43;;;;;;;13.10;2.65;;;;;;;18.73;60.11;102380.75;5020360;28;20057;-72
2023/10/04 01:01:10;;;;;;;8.88;2.22;;;;;;;18.85;60.09;102378.09;5035383;28;20062;-71
2023/10/04 01:03:38;;;;;;;9.75;2.25;;;;;;;18.91;59.50;102375.97;5036449;28;20652;-72
2023/10/04 01:06:05;;;;;;;12.35;2.20;;;;;;;18.95;58.74;102376.97;5044111;28;20056;-71
2023/10/04 01:08:34;;;;;;;11.68;2.58;;;;;;;18.47;59.85;102377.09;5038802;28;20057;-71
2023/10/04 01:11:02;;;;;;;12.95;2.33;;;;;;;18.58;60.56;102388.78;5039787;28;20404;-71
2023/10/04 01:13:30;;;;;;;8.50;1.98;;;;;;;18.54;60.20;102382.19;5057352;28;20052;-71
2023/10/04 01:15:59;;;;;;;15.02;2.35;;;;;;;18.64;60.77;102387.44;5039184;28;20052;-71
2023/10/04 01:18:30;;;;;;;10.35;2.05;;;;;;;18.63;60.33;102391.41;5057058;28;20068;-71
2023/10/04 01:20:59;;;;;;;10.93;2.10;;;;;;;18.86;60.13;102382.53;5057344;28;20047;-70
2023/10/04 01:23:28;;;;;;;14.77;2.35;;;;;;;18.72;60.54;102400.63;5042771;28;20046;-71
2023/10/04 01:25:55;;;;;;;13.65;2.53;;;;;;;18.65;59.93;102387.16;5037515;28;20061;-72
2023/10/04 01:28:28;;;;;;;12.95;2.45;;;;;;;18.35;61.21;102403.97;5040962;28;20056;-71
2023/10/04 01:30:59;;;;;;;12.23;2.47;;;;;;;18.26;62.02;102392.78;5038832;28;20056;-71
2023/10/04 01:33:28;;;;;;;13.15;3.08;;;;;;;17.77;62.93;102395.88;5038366;28;20805;-66
2023/10/04 01:35:56;;;;;;;11.10;2.20;;;;;;;18.15;62.60;102391.44;5056710;28;20049;-66
2023/10/04 01:38:25;;;;;;;16.40;3.40;;;;;;;18.27;62.62;102399.19;5037977;28;20080;-65
2023/10/04 01:40:55;;;;;;;11.60;2.40;;;;;;;18.61;61.06;102391.75;5056116;28;20052;-66
2023/10/04 01:43:24;;;;;;;;;;;;;;;18.69;60.67;102395.69;5041081;28;20504;-66
2023/10/04 01:45:58;;;;;;;15.82;2.50;;;;;;;18.62;60.46;102382.19;5076164;28;19921;-65
2023/10/04 01:48:34;;;;;;;14.07;2.53;;;;;;;18.29;60.72;102380.19;5036467;28;20048;-66
2023/10/04 01:51:04;;;;;;;14.75;2.33;;;;;;;17.69;64.07;102375.22;5056147;28;20057;-66
2023/10/04 01:53:34;;;;;;;11.25;2.40;;;;;;;17.76;63.64;102374.75;5038518;28;20057;-66
2023/10/04 01:56:03;;;;;;;14.32;2.35;;;;;;;17.90;63.94;102370.69;5072716;28;20467;-65
2023/10/04 01:58:31;;;;;;;11.48;2.50;;;;;;;18.28;62.52;102365.41;5057740;28;20056;-66
2023/10/04 02:01:01;;;;;;;16.15;3.10;;;;;;;18.33;62.57;102361.63;5057963;28;20079;-66
2023/10/04 02:03:30;;;;;;;11.60;2.20;;;;;;;18.42;61.83;102360.53;5075651;28;20057;-66
2023/10/04 02:05:57;;;;;;;8.48;2.20;;;;;;;18.33;62.34;102348.50;5070109;28;20057;-66
2023/10/04 02:08:26;;;;;;;11.27;2.65;;;;;;;18.37;61.98;102351.47;5037063;28;20052;-65
2023/10/04 02:10:54;;;;;;;16.05;2.95;;;;;;;18.44;61.59;102349.03;5037903;28;20053;-67
2023/10/04 02:13:25;;;;;;;13.77;2.65;;;;;;;18.53;61.08;102350.66;5037910;28;20053;-67
2023/10/04 02:15:53;;;;;;;11.70;2.50;;;;;;;18.48;61.75;102347.25;5038501;28;20488;-66
2023/10/04 02:18:21;;;;;;;11.65;2.58;;;;;;;18.05;62.30;102352.69;5071380;28;20041;-66
2023/10/04 02:20:53;;;;;;;7.30;1.77;;;;;;;18.23;62.40;102354.41;5021312;28;20056;-67
2023/10/04 02:23:21;;;;;;;14.40;3.08;;;;;;;18.00;61.67;102355.66;5037868;28;20506;-66
2023/10/04 02:25:49;;;;;;;15.50;2.90;;;;;;;18.02;62.93;102367.31;5055633;28;20044;-66
2023/10/04 02:28:22;;;;;;;14.90;3.05;;;;;;;18.24;62.47;102361.59;5055385;28;20391;-66
2023/10/04 02:30:54;;;;;;;20.08;2.75;;;;;;;18.07;62.74;102357.94;5054997;28;20052;-66
2023/10/04 02:33:22;;;;;;;14.10;2.92;;;;;;;18.14;62.64;102347.16;5021854;28;20045;-66
2023/10/04 02:35:50;;;;;;;17.17;2.70;;;;;;;18.32;62.20;102341.28;5021714;28;20373;-66
2023/10/04 02:38:26;;;;;;;15.32;2.30;;;;;;;18.37;61.51;102335.56;5066634;28;20052;-67
2023/10/04 02:40:54;;;;;;;10.93;2.70;;;;;;;18.38;62.02;102336.34;5068571;28;20412;-66
2023/10/04 02:43:25;;;;;;;16.98;2.70;;;;;;;18.38;61.09;102344.72;5054862;28;20052;-66
2023/10/04 02:45:57;;;;;;;8.70;2.63;;;;;;;18.22;62.29;102344.38;5039779;28;20051;-66
2023/10/04 02:48:24;;;;;;;12.45;2.80;;;;;;;18.45;61.71;102353.47;5036764;28;20040;-67
2023/10/04 02:50:52;;;;;;;13.27;2.72;;;;;;;18.18;61.93;102353.72;5055274;28;20053;-66
2023/10/04 02:53:24;;;;;;;12.63;2.88;;;;;;;18.15;62.65;102351.59;5037286;28;20060;-66
2023/10/04 02:55:56;;;;;;;;;;;;;;;18.08;62.70;102359.63;5052216;28;20052;-66
2023/10/04 02:58:34;;;;;;;;;;;;;;;18.16;62.67;102361.59;5059140;28;19920;-66
2023/10/04 03:01:03;;;;;;;14.80;3.10;;;;;;;18.25;62.44;102356.84;5039762;28;19921;-65
2023/10/04 03:03:31;;;;;;;15.05;2.70;;;;;;;18.11;62.48;102364.53;5074472;28;20071;-65
2023/10/04 03:06:04;;;;;;;11.25;2.05;;;;;;;17.79;62.90;102361.00;5055501;28;20064;-66
2023/10/04 03:08:32;;;;;;;13.82;3.13;;;;;;;17.96;63.10;102357.44;5056397;28;20403;-65
2023/10/04 03:11:03;;;;;;;10.83;2.47;;;;;;;18.14;63.03;102363.88;5056025;28;20060;-66
2023/10/04 03:13:32;;;;;;;11.80;2.75;;;;;;;17.80;62.05;102370.97;5040288;28;20051;-67
2023/10/04 03:16:03;;;;;;;15.35;3.10;;;;;;;17.11;66.44;102370.91;5043476;28;20049;-66
2023/10/04 03:18:33;;;;;;;12.65;2.55;;;;;;;16.98;65.07;102380.97;5056499;28;20052;-66
2023/10/04 03:23:35;;;;;;;16.42;2.75;;;;;;;17.61;65.19;102369.56;5056624;28;20045;-67
2023/10/04 03:26:12;;;;;;;13.40;2.75;;;;;;;17.88;63.63;102366.59;5056725;28;20057;-66
2023/10/04 03:28:40;;;;;;;11.10;2.20;;;;;;;17.60;64.13;102374.34;5073678;28;20427;-67
2023/10/04 03:31:13;;;;;;;15.90;3.08;;;;;;;17.34;65.14;102369.75;5074326;28;20253;-67
2023/10/04 03:33:45;;;;;;;16.33;2.38;;;;;;;16.35;68.23;102377.44;5056445;28;20047;-66
2023/10/04 03:36:21;;;;;;;14.95;2.28;;;;;;;16.81;68.63;102378.03;5074103;28;20049;-67
2023/10/04 03:38:55;;;;;;;11.25;2.35;;;;;;;16.94;68.14;102377.19;5073208;28;20052;-68
2023/10/04 03:41:23;;;;;;;12.95;2.75;;;;;;;17.46;65.99;102362.47;5072570;28;20052;-66
2023/10/04 03:43:55;;;;;;;16.30;2.50;;;;;;;17.75;64.67;102356.38;5040072;28;20049;-67
2023/10/04 03:46:24;;;;;;;14.85;2.72;;;;;;;17.68;64.48;102358.78;5055786;28;20048;-66
2023/10/04 03:48:56;;;;;;;12.60;2.95;;;;;;;17.73;64.49;102353.09;5055608;28;20048;-66
2023/10/04 03:51:24;;;;;;;12.75;2.42;;;;;;;17.82;64.18;102357.56;5055910;28;20057;-66
2023/10/04 03:53:55;;;;;;;14.52;3.20;;;;;;;17.60;63.96;102360.41;5089398;28;20056;-67
2023/10/04 03:56:25;;;;;;;14.63;3.07;;;;;;;17.58;64.70;102359.91;5039799;28;20048;-67
2023/10/04 03:58:54;;;;;;;19.27;3.05;;;;;;;17.68;64.65;102358.78;5055595;28;20305;-67
2023/10/04 04:01:25;;;;;;;13.52;2.78;;;;;;;17.69;64.27;102352.09;5073588;28;20044;-67
2023/10/04 04:03:53;;;;;;;17.10;3.00;;;;;;;16.73;67.46;102368.50;5073895;28;20048;-66
2023/10/04 04:06:22;;;;;;;15.68;2.67;;;;;;;17.18;67.02;102357.34;5055954;28;20044;-67
2023/10/04 04:08:50;;;;;;;14.77;3.60;;;;;;;17.21;66.00;102365.91;5073689;28;20047;-67
2023/10/04 04:11:18;;;;;;;17.33;3.40;;;;;;;17.20;66.55;102369.00;5034868;28;20539;-68
2023/10/04 04:13:46;;;;;;;13.10;2.28;;;;;;;17.52;65.18;102366.75;5035941;28;20053;-67
2023/10/04 04:16:16;;;;;;;13.95;2.78;;;;;;;17.33;65.89;102365.31;5039350;28;20371;-67
2023/10/04 04:18:47;;;;;;;18.35;2.95;;;;;;;17.39;65.55;102364.03;5055105;28;20056;-67
2023/10/04 04:21:15;;;;;;;20.10;2.97;;;;;;;17.44;65.74;102366.69;5038093;28;20063;-67
2023/10/04 04:23:42;;;;;;;13.02;2.50;;;;;;;17.53;65.26;102362.84;5039370;28;20049;-66
2023/10/04 04:26:11;;;;;;;16.73;2.40;;;;;;;17.49;65.34;102366.56;5073960;28;20399;-67
2023/10/04 04:28:39;;;;;;;11.15;2.38;;;;;;;17.83;64.38;102369.53;5055421;28;20045;-66
2023/10/04 04:31:16;;;;;;;14.77;2.78;;;;;;;17.87;64.16;102368.56;5055052;28;20523;-67
2023/10/04 04:33:45;;;;;;;9.75;2.35;;;;;;;17.73;64.21;102373.41;5039713;28;20067;-66
2023/10/04 04:36:25;;;;;;;15.52;3.53;;;;;;;17.96;63.70;102372.19;5055643;28;20605;-69
2023/10/04 04:38:58;;;;;;;16.30;3.08;;;;;;;17.87;63.49;102368.56;5056026;28;20044;-67
2023/10/04 04:41:29;;;;;;;13.18;2.63;;;;;;;17.70;64.27;102368.50;5050730;28;20041;-66
2023/10/04 04:44:06;;;;;;;14.82;2.65;;;;;;;17.59;65.08;102372.69;5059545;28;20048;-70
2023/10/04 04:46:35;;;;;;;14.57;2.47;;;;;;;17.53;64.86;102373.16;5053818;28;20053;-67
2023/10/04 04:49:03;;;;;;;16.17;2.80;;;;;;;17.56;65.26;102370.56;5062305;28;20048;-67
2023/10/04 04:51:32;;;;;;;12.20;2.55;;;;;;;17.65;64.52;102368.63;5072072;28;20063;-67
2023/10/04 04:54:00;;;;;;;12.77;2.40;;;;;;;17.71;64.22;102361.75;5055423;28;20052;-67
2023/10/04 04:56:31;;;;;;;13.18;2.97;;;;;;;17.68;64.55;102361.59;5035483;28;20053;-67
2023/10/04 04:59:07;;;;;;;11.10;2.65;;;;;;;17.82;64.21;102354.75;5068733;28;20045;-67
2023/10/04 05:01:39;;;;;;;12.48;2.90;;;;;;;17.75;64.11;102353.56;5034820;28;20051;-67
2023/10/04 05:04:07;;;;;;;16.67;3.58;;;;;;;17.82;63.96;102351.97;5035295;28;20076;-68
2023/10/04 05:06:37;;;;;;;15.50;2.70;;;;;;;17.76;63.99;102355.25;5036025;28;20049;-68
2023/10/04 05:09:06;;;;;;;13.07;2.80;;;;;;;17.57;64.87;102357.44;5051609;28;20056;-67
2023/10/04 05:11:36;;;;;;;9.35;2.28;;;;;;;17.58;65.12;102357.13;5035028;28;20045;-67
2023/10/04 05:14:05;;;;;;;14.18;2.97;;;;;;;17.62;64.92;102360.94;5035690;28;20052;-67
2023/10/04 05:16:34;;;;;;;;;;;;;;;17.53;64.48;102365.63;5060156;28;20059;-67
2023/10/04 05:19:04;;;;;;;17.02;2.65;;;;;;;17.64;64.77;102363.38;5072980;28;19920;-67
2023/10/04 05:21:32;;;;;;;15.38;2.67;;;;;;;17.65;64.74;102357.50;5073259;28;20040;-67
2023/10/04 05:23:59;;;;;;;14.98;2.55;;;;;;;17.73;64.18;102362.25;5073416;28;20053;-67
2023/10/04 05:26:30;;;;;;;12.57;2.88;;;;;;;17.78;63.84;102369.69;5072810;28;20692;-66
2023/10/04 05:29:00;;;;;;;;;;;;;;;16.84;66.99;102371.88;5074550;28;20427;-68
2023/10/04 05:31:27;;;;;;;14.57;2.78;;;;;;;16.95;66.16;102378.81;5058316;28;19931;-67
2023/10/04 05:33:54;;;;;;;17.02;3.13;;;;;;;16.88;66.77;102376.47;5077481;28;20056;-66
2023/10/04 05:36:22;;;;;;;14.80;2.88;;;;;;;17.17;66.32;102372.44;5073502;28;20052;-66
2023/10/04 05:38:50;;;;;;;13.77;2.95;;;;;;;17.32;65.44;102378.44;5061187;28;20048;-67
2023/10/04 05:41:18;;;;;;;13.07;3.30;;;;;;;17.46;64.76;102379.19;5075922;28;20060;-68
2023/10/04 05:43:46;;;;;;;13.82;3.75;;;;;;;17.60;64.59;102366.00;5058666;28;20053;-70
2023/10/04 05:46:14;;;;;;;16.00;3.00;;;;;;;17.72;63.88;102360.63;5075538;28;20067;-67
2023/10/04 05:48:42;;;;;;;17.88;3.38;;;;;;;17.69;64.09;102355.72;5074877;28;20603;-68
2023/10/04 05:51:10;;;;;;;12.10;2.50;;;;;;;17.59;64.10;102360.75;5075943;28;20048;-68
2023/10/04 05:53:38;;;;;;;14.20;3.17;;;;;;;17.63;64.39;102362.56;5058083;28;20064;-67
2023/10/04 05:56:05;;;;;;;11.48;2.92;;;;;;;17.65;64.25;102360.28;5068756;28;20059;-67
2023/10/04 05:58:34;;;;;;;15.05;3.05;;;;;;;17.79;63.66;102362.94;5074971;28;20044;-66
2023/10/04 06:01:02;;;;;;;12.77;3.07;;;;;;;17.79;63.20;102362.94;5075738;28;20059;-72
2023/10/04 06:03:32;;;;;;;11.07;2.50;;;;;;;17.73;63.90;102367.03;5074495;28;20059;-73
2023/10/04 06:06:00;;;;;;;16.63;3.08;;;;;;;17.64;64.22;102372.53;5075796;28;20059;-68
2023/10/04 06:08:28;;;;;;;17.35;3.08;;;;;;;17.83;63.63;102377.91;5075217;28;20060;-68
2023/10/04 06:10:55;;;;;;;17.60;3.63;;;;;;;17.85;63.11;102370.84;5057736;28;20048;-69
2023/10/04 06:13:25;;;;;;;15.75;3.20;;;;;;;17.80;63.45;102373.78;5040347;28;20049;-67
2023/10/04 06:15:53;;;;;;;16.45;3.55;;;;;;;17.73;63.72;102373.41;5058063;28;20059;-67
2023/10/04 06:18:28;;;;;;;12.10;2.78;;;;;;;17.99;62.84;102376.31;5075395;28;20048;-65
2023/10/04 06:20:59;;;;;;;19.75;3.67;;;;;;;17.71;63.46;102375.69;5075364;28;20052;-69
2023/10/04 06:23:30;;;;;;;19.00;3.40;;;;;;;17.70;64.07;102382.44;5074349;28;20526;-67
2023/10/04 06:26:25;;;;;;;15.38;4.40;;;;;;;17.62;64.44;102379.59;5074642;28;20056;-67
2023/10/04 06:29:08;;;;;;;16.30;3.95;;;;;;;17.53;64.75;102387.91;5075195;28;20484;-70
2023/10/04 06:32:01;;;;;;;15.75;3.53;;;;;;;17.89;63.98;102377.41;5074829;28;20049;-67
2023/10/04 06:34:29;;;;;;;15.02;4.00;;;;;;;18.13;62.64;102381.78;5057828;28;20052;-66
2023/10/04 06:36:57;;;;;;;12.55;3.65;;;;;;;18.20;62.31;102382.91;5056502;28;20053;-66
2023/10/04 06:39:24;;;;;;;13.43;3.38;;;;;;;18.05;63.19;102388.13;5075249;28;20068;-67
2023/10/04 06:41:52;;;;;;;14.27;3.25;;;;;;;18.06;63.21;102389.78;5056371;28;20061;-66
2023/10/04 06:44:22;;;;;;;15.55;3.63;;;;;;;18.09;63.29;102389.13;5040833;28;20052;-68
2023/10/04 06:46:49;;;;;;;14.57;3.47;;;;;;;18.29;62.92;102394.13;5073784;28;20045;-67
2023/10/04 06:49:17;;;;;;;15.73;4.53;;;;;;;18.22;62.96;102393.78;5074348;28;20044;-68
2023/10/04 06:51:44;;;;;;;18.92;5.95;;;;;;;18.24;63.04;102389.50;5057139;28;20498;-68
2023/10/04 06:54:11;;;;;;;19.92;4.50;;;;;;;18.14;62.78;102394.56;5090753;28;20044;-67
2023/10/04 06:56:40;;;;;;;12.57;3.08;;;;;;;18.00;63.76;102403.03;5055853;28;20056;-68
2023/10/04 06:59:08;;;;;;;14.15;3.90;;;;;;;18.07;63.95;102399.78;5074952;28;20782;-68
2023/10/04 07:01:35;;;;;;;11.02;3.25;;;;;;;18.03;64.08;102396.00;5037025;28;20056;-67
2023/10/04 07:04:05;;;;;;;18.60;3.85;;;;;;;18.13;64.10;102407.69;5064129;28;20051;-70
2023/10/04 07:06:42;;;;;;;15.45;4.13;;;;;;;18.32;63.13;102413.00;5064939;28;20052;-68
2023/10/04 07:09:14;;;;;;;22.85;3.60;;;;;;;18.42;62.99;102426.66;5047776;28;20515;-66
2023/10/04 07:11:43;;;;;;;15.52;3.45;;;;;;;18.30;64.19;102420.88;5053848;28;20044;-65
2023/10/04 07:14:11;;;;;;;17.17;3.83;;;;;;;18.30;64.72;102418.91;5053801;28;20056;-65
2023/10/04 07:16:40;;;;;;;17.92;3.35;;;;;;;18.28;65.10;102423.97;5070033;28;20044;-66
2023/10/04 07:19:08;;;;;;;15.98;3.67;;;;;;;18.27;66.08;102424.31;5039617;28;20045;-65
2023/10/04 07:21:35;;;;;;;19.83;4.00;;;;;;;18.33;65.72;102429.41;5073198;28;20056;-64
2023/10/04 07:24:06;;;;;;;17.65;3.60;;;;;;;18.27;66.36;102424.31;5070410;28;20047;-62
2023/10/04 07:26:35;;;;;;;13.65;3.10;;;;;;;18.16;67.06;102421.00;5052541;28;20060;-61
2023/10/04 07:29:03;;;;;;;19.40;3.35;;;;;;;18.01;68.41;102426.19;5071987;28;20057;-63
2023/10/04 07:31:34;;;;;;;12.02;3.13;;;;;;;18.12;67.46;102425.56;5071666;28;20051;-64
2023/10/04 07:34:03;;;;;;;14.02;3.75;;;;;;;18.20;67.58;102421.97;5058507;28;20059;-65
2023/10/04 07:36:31;;;;;;;18.60;3.70;;;;;;;17.88;66.53;102434.34;5073161;28;20053;-64
2023/10/04 07:39:00;;;;;;;20.05;3.88;;;;;;;18.29;67.02;102441.56;5055521;28;20785;-64
2023/10/04 07:41:40;;;;;;;30.85;11.90;;;;;;;18.35;66.34;102449.44;5068404;28;20055;-71
2023/10/04 07:44:34;;;;;;;27.65;11.63;;;;;;;18.51;65.09;102456.25;5050001;28;20060;-69
2023/10/04 07:49:58;;;;;;;21.50;5.72;;;;;;;18.77;64.69;102453.50;5048970;28;20044;-68
2023/10/04 07:52:25;;;;;;;20.60;4.85;;;;;;;18.62;65.10;102454.78;5069830;28;20048;-67
2023/10/04 07:54:59;;;;;;;18.90;4.32;;;;;;;18.88;65.64;102460.41;5070765;28;20044;-70
2023/10/04 07:57:49;;;;;;;25.17;5.22;;;;;;;18.81;63.52;102463.66;5053790;28;20059;-69
2023/10/04 08:00:34;;;;;;;24.08;4.53;;;;;;;18.78;64.82;102455.97;5052907;28;20067;-69
2023/10/04 08:03:03;;;;;;;16.70;4.28;;;;;;;18.94;63.72;102467.47;5072669;28;20075;-70
2023/10/04 08:05:32;;;;;;;19.50;3.80;;;;;;;18.92;63.18;102459.41;5073243;28;20036;-68
2023/10/04 08:08:04;;;;;;;19.50;4.38;;;;;;;18.83;63.60;102474.50;5055158;28;20045;-70
2023/10/04 08:10:35;;;;;;;48.95;9.60;;;;;;;18.78;63.67;102475.50;5068506;28;20155;-69
2023/10/04 08:13:04;;;;;;;35.00;6.10;;;;;;;18.68;63.81;102472.19;5072453;28;20056;-70
2023/10/04 08:15:36;;;;;;;28.90;7.22;;;;;;;18.84;63.47;102470.59;5047975;28;20056;-63
2023/10/04 08:18:28;;;;;;;21.23;4.88;;;;;;;18.80;63.95;102476.00;5052590;28;20415;-63
2023/10/04 08:21:07;;;;;;;19.55;5.05;;;;;;;18.92;65.25;102472.56;5050134;28;20041;-61
2023/10/04 08:23:35;;;;;;;18.75;4.25;;;;;;;19.28;63.04;102469.44;5068975;28;20055;-60
2023/10/04 08:26:12;;;;;;;19.20;4.43;;;;;;;19.25;62.78;102458.94;5085642;28;20040;-62
2023/10/04 08:28:43;;;;;;;15.20;4.07;;;;;;;19.12;63.70;102454.34;5046802;28;20558;-64
2023/10/04 08:31:24;;;;;;;18.52;4.55;;;;;;;19.14;63.09;102452.03;5070192;28;20039;-62
2023/10/04 08:33:52;;;;;;;15.90;3.60;;;;;;;19.20;63.23;102447.91;5044824;28;20044;-62
2023/10/04 08:36:21;;;;;;;13.27;4.10;;;;;;;19.32;62.99;102448.91;5034781;28;20496;-63
2023/10/04 08:38:49;;;;;;;16.90;4.55;;;;;;;19.22;62.93;102454.81;5053946;28;20063;-62
2023/10/04 08:41:17;;;;;;;19.73;6.45;;;;;;;19.25;62.88;102447.78;5049548;28;20049;-61
2023/10/04 08:43:45;;;;;;;28.42;5.47;;;;;;;19.35;62.55;102455.84;5072042;28;20055;-61
2023/10/04 08:46:18;;;;;;;16.60;4.03;;;;;;;19.28;62.29;102452.69;5072177;28;20045;-61
2023/10/04 08:48:53;;;;;;;17.60;5.53;;;;;;;19.19;63.20;102461.06;5052173;28;20053;-61
2023/10/04 08:51:28;;;;;;;23.13;4.00;;;;;;;19.20;63.16;102459.09;5072003;28;20041;-62
2023/10/04 08:54:11;;;;;;;19.17;4.30;;;;;;;19.05;62.50;102469.63;5062474;28;20056;-62
2023/10/04 08:56:58;;;;;;;20.35;4.75;;;;;;;19.19;63.54;102463.88;5026012;28;20068;-62
2023/10/04 08:59:33;;;;;;;16.85;3.50;;;;;;;19.30;62.90;102467.16;5053827;28;20045;-63
2023/10/04 09:02:02;;;;;;;19.05;3.55;;;;;;;19.21;63.49;102469.13;5072148;28;20047;-61
2023/10/04 09:04:30;;;;;;;18.35;4.15;;;;;;;19.39;62.86;102474.41;5055528;28;20048;-62
2023/10/04 09:07:02;;;;;;;20.80;3.53;;;;;;;19.16;62.83;102486.84;5054162;28;20064;-61
2023/10/04 09:09:32;;;;;;;19.73;3.90;;;;;;;19.36;62.81;102475.06;5074172;28;20041;-62
2023/10/04 09:12:01;;;;;;;25.10;4.63;;;;;;;19.56;62.10;102463.19;5085636;28;20056;-64
2023/10/04 09:14:46;;;;;;;22.65;4.70;;;;;;;19.61;61.95;102459.41;5073889;28;20419;-63
2023/10/04 09:17:19;;;;;;;16.73;3.65;;;;;;;19.71;61.39;102457.09;5037475;28;20059;-61
2023/10/04 09:19:47;;;;;;;27.17;4.38;;;;;;;19.63;61.78;102455.09;5048318;28;20049;-61
2023/10/04 09:22:17;;;;;;;16.90;3.70;;;;;;;19.59;61.97;102458.91;5070825;28;20045;-65
2023/10/04 09:25:41;;;;;;;16.05;3.72;;;;;;;19.78;61.33;102465.78;5043279;28;20059;-65
2023/10/04 09:28:18;;;;;;;14.25;3.60;;;;;;;19.88;60.97;102472.97;5055324;28;20422;-63
2023/10/04 09:30:45;;;;;;;19.15;4.00;;;;;;;19.70;60.90;102477.78;5074975;28;20048;-63
2023/10/04 09:33:28;;;;;;;18.00;3.50;;;;;;;19.45;61.65;102475.06;5067815;28;20053;-62
2023/10/04 09:35:56;;;;;;;23.05;4.30;;;;;;;19.28;62.81;102473.06;5050635;28;20056;-62
2023/10/04 09:38:29;;;;;;;20.42;3.53;;;;;;;19.29;63.16;102469.13;5051589;28;20565;-62
2023/10/04 09:40:59;;;;;;;19.58;4.00;;;;;;;19.60;62.56;102474.53;5050863;28;20049;-64
2023/10/04 09:43:36;;;;;;;;;;;;;;;19.80;61.32;102459.84;5075206;28;20059;-63
2023/10/04 09:46:13;;;;;;;17.55;3.60;;;;;;;19.77;61.06;102452.94;5056679;28;19928;-63
2023/10/04 09:48:43;;;;;;;13.98;3.42;;;;;;;19.92;60.30;102443.19;5071948;28;20548;-63
2023/10/04 09:51:20;;;;;;;13.68;3.20;;;;;;;19.91;60.58;102450.75;5048632;28;20044;-65
2023/10/04 09:53:48;;;;;;;12.02;3.03;;;;;;;20.03;60.61;102450.06;5043282;28;20496;-65
2023/10/04 09:56:18;;;;;;;17.73;4.90;;;;;;;19.95;60.11;102448.94;5016770;28;20053;-62
2023/10/04 09:58:50;;;;;;;17.42;3.65;;;;;;;20.06;60.05;102444.63;5062450;28;20064;-63
2023/10/04 10:01:19;;;;;;;15.55;3.25;;;;;;;19.51;60.09;102449.38;5048731;28;20345;-63
2023/10/04 10:04:02;;;;;;;16.30;3.83;;;;;;;19.81;60.58;102444.69;5092733;28;20051;-62
2023/10/04 10:06:33;;;;;;;13.32;3.08;;;;;;;19.54;61.34;102450.72;5037999;28;20053;-63
2023/10/04 10:09:03;;;;;;;19.38;3.40;;;;;;;19.38;62.56;102449.56;5069835;28;20055;-62
2023/10/04 10:11:32;;;;;;;14.80;3.08;;;;;;;19.57;61.54;102445.28;5054240;28;20052;-62
2023/10/04 10:14:09;;;;;;;13.23;3.20;;;;;;;19.82;61.58;102438.78;5072139;28;20052;-64
2023/10/04 10:16:43;;;;;;;13.75;3.35;;;;;;;19.94;61.10;102440.88;5033796;28;20049;-63
2023/10/04 10:19:28;;;;;;;15.27;3.85;;;;;;;20.05;61.14;102434.56;5051981;28;20049;-64
2023/10/04 10:22:13;;;;;;;13.70;3.15;;;;;;;20.40;60.03;102431.66;5058087;28;20041;-64
2023/10/04 10:24:48;;;;;;;11.10;3.60;;;;;;;20.47;59.22;102426.34;5052165;28;20056;-63
2023/10/04 10:27:23;;;;;;;15.48;4.32;;;;;;;20.44;58.91;102422.22;5053792;28;20399;-64
2023/10/04 10:29:51;;;;;;;21.83;7.10;;;;;;;20.42;58.93;102420.91;5074275;28;20051;-63
2023/10/04 10:32:20;;;;;;;16.20;7.43;;;;;;;20.33;58.24;102434.97;5073922;28;20040;-63
2023/10/04 10:35:08;;;;;;;13.25;4.78;;;;;;;20.45;58.13;102426.66;5069300;28;20044;-62
2023/10/04 10:37:38;;;;;;;17.70;5.07;;;;;;;20.55;58.61;102429.09;5066763;28;20060;-64
2023/10/04 10:40:09;;;;;;;21.23;5.95;;;;;;;20.62;57.44;102437.75;5075185;28;20067;-63
2023/10/04 10:43:11;;;;;;;18.85;9.10;;;;;;;20.05;57.51;102440.16;5059330;28;20053;-63
2023/10/04 10:45:38;;;;;;;19.15;7.55;;;;;;;20.04;59.60;102446.09;5057069;28;20471;-63
2023/10/04 10:48:14;;;;;;;12.30;4.63;;;;;;;20.51;58.13;102430.91;5072445;28;20051;-65
2023/10/04 10:50:43;;;;;;;21.30;5.55;;;;;;;19.48;56.17;102427.69;5050956;28;20056;-64
2023/10/04 10:53:32;;;;;;;16.85;5.13;;;;;;;19.66;63.88;102417.28;5071426;28;20043;-65
2023/10/04 10:56:04;;;;;;;17.48;5.18;;;;;;;19.90;60.93;102421.16;5069906;28;20040;-65
2023/10/04 10:58:31;;;;;;;13.70;3.88;;;;;;;20.02;60.69;102423.25;5073932;28;20052;-71
2023/10/04 11:00:58;;;;;;;15.43;4.50;;;;;;;18.99;57.56;102426.25;5056256;28;20052;-70
2023/10/04 11:03:26;;;;;;;64.13;36.97;;;;;;;18.80;61.12;102431.31;5072148;28;20051;-70
2023/10/04 11:05:58;;;;;;;35.17;18.88;;;;;;;18.98;63.25;102415.41;5056469;28;20490;-71
2023/10/04 11:08:28;;;;;;;21.13;10.43;;;;;;;19.38;61.63;102419.66;5036303;28;20049;-64
2023/10/04 11:10:55;;;;;;;25.38;9.90;;;;;;;19.85;60.54;102409.31;5068790;28;20044;-62
2023/10/04 11:13:24;;;;;;;16.85;5.38;;;;;;;20.06;59.82;102407.44;5070313;28;20052;-63
2023/10/04 11:15:52;;;;;;;15.35;5.25;;;;;;;20.35;60.57;102406.63;5068648;28;20044;-63
2023/10/04 11:18:30;;;;;;;16.95;4.45;;;;;;;20.20;58.38;102388.47;5072621;28;20059;-63
2023/10/04 11:21:04;;;;;;;17.90;5.32;;;;;;;19.57;58.91;102400.53;5049142;28;20029;-70
2023/10/04 11:23:33;;;;;;;19.33;5.82;;;;;;;19.49;60.83;102400.56;5075133;28;20049;-70
2023/10/04 11:26:09;;;;;;;14.07;5.20;;;;;;;19.99;59.87;102399.56;5072702;28;20040;-73
2023/10/04 11:28:38;;;;;;;12.32;4.57;;;;;;;20.31;59.13;102405.69;5044719;28;20049;-73
2023/10/04 11:31:05;;;;;;;16.40;5.40;;;;;;;20.45;56.06;102407.06;5067451;28;20099;-71
2023/10/04 11:33:49;;;;;;;16.90;5.82;;;;;;;20.15;59.10;102397.03;5053710;28;20055;-68
2023/10/04 11:36:24;;;;;;;18.60;4.25;;;;;;;20.25;57.58;102393.84;5038131;28;20048;-69
2023/10/04 11:38:52;;;;;;;18.35;4.30;;;;;;;20.29;58.86;102389.25;5072421;28;20056;-70
2023/10/04 11:41:29;;;;;;;15.00;3.57;;;;;;;20.47;58.86;102384.34;5071994;28;20045;-72
2023/10/04 11:44:20;;;;;;;17.67;5.63;;;;;;;20.62;56.74;102380.94;5043044;28;20047;-70